createdAt,value
2022-10-04T00:02:26.570Z,71.14
2022-10-04T00:05:01.335Z,71.39
2022-10-04T00:07:34.910Z,71.84
2022-10-04T00:10:08.761Z,72.14
2022-10-04T00:12:41.779Z,72.06
2022-10-04T00:15:27.197Z,72.58
2022-10-04T00:18:06.561Z,73.28
2022-10-04T00:21:01.321Z,74.77
2022-10-04T00:23:46.285Z,74.85
2022-10-04T00:26:59.416Z,74.54
2022-10-04T00:29:34.098Z,74.65
2022-10-04T00:32:28.634Z,74.83
2022-10-04T00:34:57.625Z,74.44
2022-10-04T00:37:27.197Z,74.55
2022-10-04T00:40:05.974Z,74.60
2022-10-04T00:42:53.978Z,74.45
2022-10-04T00:45:32.081Z,74.61
2022-10-04T00:48:30.339Z,74.78
2022-10-04T00:51:05.758Z,75.07
2022-10-04T00:53:42.874Z,74.91
2022-10-04T00:56:16.558Z,74.24
2022-10-04T00:58:52.323Z,74.88
2022-10-04T01:01:25.119Z,74.76
2022-10-04T01:03:56.659Z,74.65
2022-10-04T01:06:26.501Z,75.14
2022-10-04T01:08:57.275Z,74.92
2022-10-04T01:11:30.686Z,75.00
2022-10-04T01:14:01.032Z,74.68
2022-10-04T01:16:30.634Z,75.46
2022-10-04T01:19:27.210Z,75.68
2022-10-04T01:22:01.079Z,75.71
2022-10-04T01:24:35.900Z,75.58
2022-10-04T01:27:05.007Z,75.98
2022-10-04T01:29:33.546Z,76.57
2022-10-04T01:32:03.026Z,76.32
2022-10-04T01:34:31.886Z,76.23
2022-10-04T01:37:01.580Z,76.21
2022-10-04T01:39:32.383Z,76.70
2022-10-04T01:42:06.383Z,77.16
2022-10-04T01:44:40.437Z,77.27
2022-10-04T01:47:14.327Z,77.67
2022-10-04T01:49:45.308Z,77.83
2022-10-04T01:52:19.583Z,78.08
2022-10-04T01:54:53.136Z,77.93
2022-10-04T01:57:25.234Z,78.03
2022-10-04T01:59:58.858Z,78.11
2022-10-04T02:02:32.131Z,78.46
2022-10-04T02:05:01.553Z,78.68
2022-10-04T02:07:33.659Z,78.97
2022-10-04T02:10:06.602Z,78.70
2022-10-04T02:12:36.462Z,78.25
2022-10-04T02:15:08.539Z,78.09
2022-10-04T02:17:43.221Z,78.47
2022-10-04T02:20:17.284Z,78.35
2022-10-04T02:22:47.657Z,78.80
2022-10-04T02:25:21.173Z,79.05
2022-10-04T02:27:53.133Z,79.37
2022-10-04T02:30:21.832Z,78.98
2022-10-04T02:32:59.814Z,78.72
2022-10-04T02:35:31.125Z,78.51
2022-10-04T02:38:10.171Z,78.31
2022-10-04T02:40:46.552Z,78.11
2022-10-04T02:43:20.996Z,78.06
2022-10-04T02:45:54.107Z,78.05
2022-10-04T02:48:36.866Z,78.37
2022-10-04T02:51:19.489Z,78.83
2022-10-04T02:54:03.174Z,79.18
2022-10-04T02:56:34.645Z,79.23
2022-10-04T02:59:04.757Z,79.49
2022-10-04T03:01:50.603Z,79.73
2022-10-04T03:04:21.184Z,79.81
2022-10-04T03:06:49.641Z,79.89
2022-10-04T03:09:22.017Z,79.94
2022-10-04T03:11:53.995Z,79.97
2022-10-04T03:14:26.147Z,79.52
2022-10-04T03:17:00.702Z,79.64
2022-10-04T03:19:31.605Z,79.62
2022-10-04T03:22:03.746Z,79.33
2022-10-04T03:24:34.530Z,78.98
2022-10-04T03:27:07.809Z,78.70
2022-10-04T03:29:36.633Z,78.52
2022-10-04T03:32:06.410Z,78.19
2022-10-04T03:34:37.377Z,77.82
2022-10-04T03:37:11.192Z,78.04
2022-10-04T03:39:43.567Z,77.53
2022-10-04T03:42:16.927Z,77.49
2022-10-04T03:44:46.808Z,77.40
2022-10-04T03:47:20.797Z,77.66
2022-10-04T03:49:51.244Z,77.45
2022-10-04T03:52:22.866Z,77.70
2022-10-04T03:54:53.451Z,77.91
2022-10-04T03:57:23.864Z,77.99
2022-10-04T03:59:52.905Z,78.08
2022-10-04T04:02:31.222Z,78.20
2022-10-04T04:05:08.954Z,78.27
2022-10-04T04:07:44.265Z,77.96
2022-10-04T04:10:21.250Z,77.99
2022-10-04T04:12:56.394Z,77.88
2022-10-04T04:15:29.841Z,77.99
2022-10-04T04:18:02.181Z,77.82
2022-10-04T04:20:34.197Z,77.63
2022-10-04T04:23:06.832Z,77.46
2022-10-04T04:25:39.179Z,77.55
2022-10-04T04:28:27.456Z,77.13
2022-10-04T04:31:01.631Z,76.74
2022-10-04T04:33:32.691Z,76.46
2022-10-04T04:36:06.432Z,76.37
2022-10-04T04:38:35.563Z,76.19
2022-10-04T04:41:11.763Z,75.71
2022-10-04T04:43:44.793Z,75.63
2022-10-04T04:46:27.243Z,74.95
2022-10-04T04:49:02.059Z,75.16
2022-10-04T04:51:32.679Z,74.53
2022-10-04T04:54:03.711Z,74.34
2022-10-04T04:56:32.373Z,74.42
2022-10-04T04:59:04.944Z,74.64
2022-10-04T05:01:36.540Z,74.31
2022-10-04T05:04:06.994Z,74.16
2022-10-04T05:06:36.975Z,74.28
2022-10-04T05:09:06.745Z,73.85
2022-10-04T05:11:37.677Z,73.04
2022-10-04T05:14:10.606Z,72.48
2022-10-04T05:16:43.958Z,72.03
2022-10-04T05:19:17.605Z,71.92
2022-10-04T05:21:48.603Z,70.97
2022-10-04T05:24:22.884Z,70.29
2022-10-04T05:26:53.754Z,69.78
2022-10-04T05:29:27.708Z,69.70
2022-10-04T05:32:17.088Z,69.56
2022-10-04T05:34:50.255Z,68.34
2022-10-04T05:37:31.209Z,67.66
2022-10-04T05:40:11.109Z,66.79
2022-10-04T05:42:45.630Z,66.65
2022-10-04T05:45:19.875Z,66.83
2022-10-04T05:47:50.947Z,65.78
2022-10-04T05:50:24.379Z,65.97
2022-10-04T05:52:53.654Z,65.37
2022-10-04T05:55:34.346Z,65.88
2022-10-04T05:58:31.503Z,64.82
2022-10-04T06:01:24.926Z,64.39
2022-10-04T06:04:19.157Z,62.98
2022-10-04T06:06:52.509Z,60.63
2022-10-04T06:09:38.392Z,57.02
2022-10-04T06:12:13.599Z,58.38
2022-10-04T06:15:08.750Z,58.02
2022-10-04T06:17:56.277Z,60.48
2022-10-04T06:21:15.989Z,61.47
2022-10-04T06:23:51.369Z,63.84
2022-10-04T06:26:25.289Z,65.51
2022-10-04T06:28:57.719Z,63.58
2022-10-04T06:31:48.211Z,64.11
2022-10-04T06:34:44.299Z,63.14
2022-10-04T06:37:39.914Z,64.99
2022-10-04T06:40:38.739Z,63.87
2022-10-04T06:43:23.473Z,63.85
2022-10-04T06:46:09.173Z,62.38
2022-10-04T06:48:55.568Z,62.08
2022-10-04T06:51:41.905Z,60.96
2022-10-04T06:54:28.166Z,60.75
2022-10-04T06:57:19.076Z,61.55
2022-10-04T07:00:06.438Z,60.67
2022-10-04T07:02:41.448Z,60.80
2022-10-04T07:05:19.216Z,59.67
2022-10-04T07:08:06.808Z,59.54
2022-10-04T07:10:42.104Z,59.81
2022-10-04T07:13:24.667Z,61.12
2022-10-04T07:15:58.417Z,61.77
2022-10-04T07:18:35.613Z,60.76
2022-10-04T07:21:09.114Z,59.33
2022-10-04T07:23:45.716Z,59.23
2022-10-04T07:26:24.346Z,57.76
2022-10-04T07:29:12.778Z,57.93
2022-10-04T07:31:44.231Z,54.93
2022-10-04T07:34:18.540Z,55.82
2022-10-04T07:36:51.176Z,55.39
2022-10-04T07:39:26.057Z,54.75
2022-10-04T07:41:56.402Z,55.50
2022-10-04T07:44:35.638Z,54.63
2022-10-04T07:47:14.787Z,53.84
2022-10-04T07:49:43.250Z,53.42
2022-10-04T07:52:26.736Z,52.52
2022-10-04T07:55:05.611Z,52.68
2022-10-04T07:57:47.535Z,52.67
2022-10-04T08:00:20.526Z,53.91
2022-10-04T08:03:06.339Z,52.09
2022-10-04T08:05:38.331Z,52.21
2022-10-04T08:08:30.982Z,53.19
2022-10-04T08:11:17.362Z,52.83
2022-10-04T08:13:59.786Z,52.32
2022-10-04T08:16:37.074Z,51.38
2022-10-04T08:19:25.702Z,50.10
2022-10-04T08:22:01.632Z,49.12
2022-10-04T08:24:36.951Z,49.33
2022-10-04T08:27:27.544Z,49.01
2022-10-04T08:30:04.860Z,49.76
2022-10-04T08:32:54.892Z,48.78
2022-10-04T08:35:36.277Z,48.37
2022-10-04T08:38:27.249Z,47.66
2022-10-04T08:41:38.201Z,47.11
2022-10-04T08:44:52.754Z,46.21
2022-10-04T08:48:11.209Z,47.32
2022-10-04T08:51:23.726Z,49.11
2022-10-04T08:54:26.382Z,47.54
2022-10-04T08:57:06.025Z,46.58
2022-10-04T09:00:06.148Z,48.09
2022-10-04T09:02:59.103Z,48.39
2022-10-04T09:05:40.080Z,46.92
2022-10-04T09:08:50.166Z,47.80
2022-10-04T09:11:33.750Z,47.11
2022-10-04T09:14:21.246Z,44.55
2022-10-04T09:17:00.937Z,47.01
2022-10-04T09:19:46.135Z,48.60
2022-10-04T09:22:20.226Z,50.84
2022-10-04T09:25:31.385Z,51.45
2022-10-04T09:28:44.140Z,50.26
2022-10-04T09:31:34.620Z,50.21
2022-10-04T09:34:25.794Z,49.52
2022-10-04T09:37:14.258Z,47.72
2022-10-04T09:40:01.045Z,47.38
2022-10-04T09:42:54.563Z,46.23
2022-10-04T09:45:53.683Z,45.95
2022-10-04T09:48:30.443Z,45.39
2022-10-04T09:51:42.080Z,45.67
2022-10-04T09:54:35.126Z,43.03
2022-10-04T09:57:21.567Z,45.39
2022-10-04T10:00:09.882Z,45.46
2022-10-04T10:03:30.424Z,44.72
2022-10-04T10:06:23.835Z,43.35
2022-10-04T10:09:10.687Z,42.39
2022-10-04T10:12:06.746Z,42.14
2022-10-04T10:14:57.165Z,43.28
2022-10-04T10:17:37.345Z,44.61
2022-10-04T10:20:31.608Z,45.04
2022-10-04T10:23:14.040Z,45.85
2022-10-04T10:25:54.983Z,46.36
2022-10-04T10:28:42.291Z,45.79
2022-10-04T10:31:31.621Z,45.66
2022-10-04T10:34:21.189Z,44.79
2022-10-04T10:37:09.110Z,44.30
2022-10-04T10:40:21.049Z,44.92
2022-10-04T10:43:14.521Z,44.80
2022-10-04T10:46:11.818Z,43.11
2022-10-04T10:48:57.059Z,42.92
2022-10-04T10:51:55.947Z,44.23
2022-10-04T10:55:08.284Z,43.87
2022-10-04T10:58:13.620Z,42.83
2022-10-04T11:00:54.902Z,43.07
2022-10-04T11:04:01.925Z,43.20
2022-10-04T11:07:05.486Z,42.81
2022-10-04T11:09:47.910Z,44.56
2022-10-04T11:12:55.833Z,45.19
2022-10-04T11:16:08.785Z,45.55
2022-10-04T11:19:19.150Z,46.68
2022-10-04T11:22:33.700Z,47.03
2022-10-04T11:25:43.621Z,46.98
2022-10-04T11:28:19.070Z,46.59
2022-10-04T11:31:17.554Z,46.28
2022-10-04T11:34:17.889Z,46.22
2022-10-04T11:37:06.375Z,46.79
2022-10-04T11:40:09.379Z,46.97
2022-10-04T11:42:58.292Z,46.13
2022-10-04T11:45:40.230Z,47.10
2022-10-04T11:48:21.591Z,47.52
2022-10-04T11:51:12.676Z,47.26
2022-10-04T11:54:04.663Z,49.13
2022-10-04T11:56:43.597Z,48.00
2022-10-04T11:59:27.577Z,48.55
2022-10-04T12:02:41.315Z,48.51
2022-10-04T12:05:27.469Z,48.65
2022-10-04T12:08:12.063Z,48.78
2022-10-04T12:10:41.730Z,48.52
2022-10-04T12:13:40.608Z,48.52
2022-10-04T12:16:44.635Z,48.48
2022-10-04T12:19:42.608Z,47.27
2022-10-04T12:22:45.211Z,45.92
2022-10-04T12:25:48.569Z,45.76
2022-10-04T12:28:34.762Z,46.05
2022-10-04T12:31:17.616Z,45.55
2022-10-04T12:33:54.208Z,45.94
2022-10-04T12:36:43.933Z,45.39
2022-10-04T12:39:28.516Z,45.68
2022-10-04T12:42:11.843Z,45.69
2022-10-04T12:44:56.394Z,45.39
2022-10-04T12:47:52.861Z,45.20
2022-10-04T12:50:34.756Z,44.92
2022-10-04T12:53:15.631Z,45.48
2022-10-04T12:56:00.635Z,47.11
2022-10-04T12:58:45.012Z,48.02
2022-10-04T13:01:23.170Z,47.64
2022-10-04T13:04:18.013Z,49.28
2022-10-04T13:06:59.528Z,49.54
2022-10-04T13:09:59.860Z,49.72
2022-10-04T13:13:04.403Z,49.78
2022-10-04T13:18:37.283Z,50.25
2022-10-04T13:21:08.021Z,50.30
2022-10-04T13:23:54.051Z,50.37
2022-10-04T13:26:39.494Z,51.67
2022-10-04T13:29:20.957Z,51.37
2022-10-04T13:31:54.092Z,51.20
2022-10-04T13:34:32.981Z,51.79
2022-10-04T13:37:21.293Z,51.79
2022-10-04T13:40:16.005Z,51.51
2022-10-04T13:43:01.205Z,51.44
2022-10-04T13:45:39.341Z,51.33
2022-10-04T13:48:28.131Z,51.63
2022-10-04T13:51:20.583Z,52.36
2022-10-04T13:54:16.047Z,52.18
2022-10-04T13:56:58.615Z,55.30
2022-10-04T13:59:36.735Z,57.02
2022-10-04T14:02:31.363Z,58.26
2022-10-04T14:05:39.056Z,59.39
2022-10-04T14:08:36.840Z,59.56
2022-10-04T14:11:39.275Z,61.08
2022-10-04T14:14:48.132Z,62.72
2022-10-04T14:18:01.502Z,63.55
2022-10-04T14:21:06.812Z,63.34
2022-10-04T14:24:19.507Z,63.06
2022-10-04T14:27:24.111Z,63.77
2022-10-04T14:30:19.987Z,63.98
2022-10-04T14:33:34.288Z,63.59
2022-10-04T14:36:25.012Z,64.10
2022-10-04T14:39:19.312Z,64.05
2022-10-04T14:42:16.295Z,64.61
2022-10-04T14:45:19.775Z,65.12
2022-10-04T14:48:20.024Z,65.29
2022-10-04T14:51:10.611Z,65.68
2022-10-04T14:53:50.451Z,66.75
2022-10-04T14:56:44.497Z,66.62
2022-10-04T14:59:43.428Z,67.08
2022-10-04T15:02:49.513Z,67.04
2022-10-04T15:05:44.322Z,67.64
2022-10-04T15:09:08.330Z,68.42
2022-10-04T15:11:44.370Z,69.63
2022-10-04T15:14:32.727Z,71.47
2022-10-04T15:17:02.828Z,71.83
2022-10-04T15:19:34.838Z,73.59
2022-10-04T15:22:12.508Z,75.17
2022-10-04T15:24:49.834Z,75.86
2022-10-04T15:27:44.436Z,76.29
2022-10-04T15:30:22.379Z,75.95
2022-10-04T15:33:07.929Z,75.68
2022-10-04T15:35:42.878Z,75.24
2022-10-04T15:38:27.418Z,74.56
2022-10-04T15:41:04.173Z,75.06
2022-10-04T15:43:42.809Z,74.95
2022-10-04T15:46:32.785Z,75.17
2022-10-04T15:49:25.095Z,75.31
2022-10-04T15:52:12.282Z,74.81
2022-10-04T15:55:04.835Z,74.64
2022-10-04T15:57:42.533Z,75.25
2022-10-04T16:00:15.297Z,75.10
2022-10-04T16:03:03.541Z,74.71
2022-10-04T16:05:37.633Z,74.92
2022-10-04T16:08:40.409Z,75.27
2022-10-04T16:11:33.253Z,75.49
2022-10-04T16:14:35.403Z,75.18
2022-10-04T16:17:38.715Z,75.22
2022-10-04T16:20:40.750Z,75.42
2022-10-04T16:23:31.627Z,75.38
2022-10-04T16:26:02.203Z,75.20
2022-10-04T16:28:57.103Z,75.32
2022-10-04T16:31:39.629Z,75.25
2022-10-04T16:34:29.273Z,75.41
2022-10-04T16:37:05.258Z,75.77
2022-10-04T16:39:55.848Z,76.02
2022-10-04T16:42:29.296Z,75.56
2022-10-04T16:45:03.238Z,75.87
2022-10-04T16:47:35.039Z,75.89
2022-10-04T16:50:05.181Z,75.81
2022-10-04T16:53:00.773Z,75.33
2022-10-04T16:55:52.307Z,75.00
2022-10-04T16:58:57.148Z,74.70
2022-10-04T17:01:58.405Z,74.45
2022-10-04T17:04:55.742Z,73.85
2022-10-04T17:07:35.020Z,73.81
2022-10-04T17:10:20.371Z,72.98
2022-10-04T17:12:56.869Z,72.59
2022-10-04T17:15:49.909Z,71.20
2022-10-04T17:18:31.496Z,70.73
2022-10-04T17:21:06.262Z,71.52
2022-10-04T17:24:19.504Z,71.29
2022-10-04T17:27:05.653Z,69.82
2022-10-04T17:29:48.664Z,69.31
2022-10-04T17:32:26.369Z,68.93
2022-10-04T17:35:14.029Z,68.22
2022-10-04T17:37:54.425Z,67.55
2022-10-04T17:40:34.623Z,67.96
2022-10-04T17:43:08.551Z,68.22
2022-10-04T17:45:58.672Z,68.03
2022-10-04T17:48:48.100Z,67.93
2022-10-04T17:51:56.724Z,68.14
2022-10-04T17:54:48.217Z,68.07
2022-10-04T17:57:30.910Z,68.24
2022-10-04T18:00:09.619Z,68.36
2022-10-04T18:03:04.266Z,68.52
2022-10-04T18:05:37.387Z,68.85
2022-10-04T18:08:14.057Z,69.11
2022-10-04T18:10:51.654Z,69.74
2022-10-04T18:13:27.246Z,70.31
2022-10-04T18:16:02.630Z,70.17
2022-10-04T18:18:39.040Z,69.95
2022-10-04T18:21:20.478Z,69.62
2022-10-04T18:23:59.555Z,69.09
2022-10-04T18:26:31.731Z,68.80
2022-10-04T18:29:02.638Z,68.42
2022-10-04T18:31:37.652Z,67.99
2022-10-04T18:34:29.454Z,67.73
2022-10-04T18:37:06.999Z,67.84
2022-10-04T18:39:49.578Z,67.73
2022-10-04T18:42:27.030Z,68.02
2022-10-04T18:45:00.507Z,68.08
2022-10-04T18:47:35.911Z,68.04
2022-10-04T18:50:17.181Z,68.37
2022-10-04T18:53:04.326Z,69.19
2022-10-04T18:55:42.432Z,69.27
2022-10-04T18:58:44.009Z,69.55
2022-10-04T19:01:54.055Z,69.43
2022-10-04T19:04:27.632Z,69.75
2022-10-04T19:07:03.145Z,70.14
2022-10-04T19:09:45.311Z,69.83
2022-10-04T19:12:17.441Z,69.70
2022-10-04T19:14:56.486Z,70.11
2022-10-04T19:17:29.539Z,70.46
2022-10-04T19:20:04.010Z,70.58
2022-10-04T19:22:46.711Z,70.42
2022-10-04T19:25:57.269Z,70.57
2022-10-04T19:28:34.774Z,70.52
2022-10-04T19:31:13.846Z,70.68
2022-10-04T19:33:50.232Z,70.75
2022-10-04T19:36:46.584Z,71.23
2022-10-04T19:39:32.121Z,71.23
2022-10-04T19:42:03.522Z,71.78
2022-10-04T19:44:43.391Z,71.67
2022-10-04T19:47:42.407Z,71.96
2022-10-04T19:50:21.234Z,71.99
2022-10-04T19:52:53.578Z,72.01
2022-10-04T19:55:26.391Z,71.96
2022-10-04T19:58:04.780Z,71.69
2022-10-04T20:00:35.766Z,71.41
2022-10-04T20:03:12.839Z,71.74
2022-10-04T20:05:46.119Z,71.98
2022-10-04T20:08:16.024Z,71.95
2022-10-04T20:10:44.868Z,71.73
2022-10-04T20:13:24.292Z,71.34
2022-10-04T20:15:54.709Z,71.26
2022-10-04T20:19:02.425Z,71.35
2022-10-04T20:21:32.909Z,70.83
2022-10-04T20:24:01.820Z,70.92
2022-10-04T20:27:00.341Z,70.92
2022-10-04T20:30:06.468Z,71.09
2022-10-04T20:33:02.607Z,71.33
2022-10-04T20:36:08.558Z,71.36
2022-10-04T20:38:49.930Z,71.26
2022-10-04T20:42:04.280Z,71.87
2022-10-04T20:44:43.799Z,71.31
2022-10-04T20:47:21.707Z,71.67
2022-10-04T20:49:50.044Z,71.49
2022-10-04T20:52:19.453Z,70.95
2022-10-04T20:54:53.529Z,70.79
2022-10-04T20:57:23.970Z,70.87
2022-10-04T20:59:55.656Z,71.17
2022-10-04T21:02:25.257Z,72.12
2022-10-04T21:04:54.006Z,72.86
2022-10-04T21:07:23.790Z,73.76
2022-10-04T21:09:54.807Z,74.05
2022-10-04T21:12:31.706Z,74.04
2022-10-04T21:15:05.131Z,74.19
2022-10-04T21:17:41.265Z,74.38
2022-10-04T21:20:15.912Z,74.19
2022-10-04T21:22:44.799Z,74.13
2022-10-04T21:25:44.128Z,74.24
2022-10-04T21:28:26.793Z,73.42
2022-10-04T21:30:54.874Z,72.80
2022-10-04T21:33:23.008Z,72.40
2022-10-04T21:35:52.418Z,72.80
2022-10-04T21:38:20.961Z,72.62
2022-10-04T21:40:50.444Z,73.05
2022-10-04T21:43:18.566Z,73.82
2022-10-04T21:45:46.839Z,72.99
2022-10-04T21:48:14.997Z,72.56
2022-10-04T21:50:43.733Z,72.10
2022-10-04T21:53:11.854Z,72.01
2022-10-04T21:55:39.923Z,72.50
2022-10-04T21:58:09.386Z,72.16
2022-10-04T22:00:37.561Z,71.76
2022-10-04T22:03:05.891Z,71.39
2022-10-04T22:05:33.984Z,71.08
2022-10-04T22:08:02.118Z,70.79
2022-10-04T22:10:31.187Z,71.02
2022-10-04T22:12:59.259Z,71.54
2022-10-04T22:15:29.713Z,72.13
2022-10-04T22:17:58.113Z,72.53
2022-10-04T22:20:26.545Z,72.83
2022-10-04T22:22:56.047Z,72.51
2022-10-04T22:25:25.252Z,72.28
2022-10-04T22:27:53.963Z,72.51
2022-10-04T22:30:25.458Z,72.79
2022-10-04T22:32:56.834Z,73.04
2022-10-04T22:35:25.057Z,73.60
2022-10-04T22:37:53.565Z,74.07
2022-10-04T22:40:23.112Z,72.75
2022-10-04T22:42:53.364Z,73.23
2022-10-04T22:45:24.291Z,73.19
2022-10-04T22:47:53.548Z,73.41
2022-10-04T22:50:38.198Z,73.45
2022-10-04T22:53:13.318Z,73.55
2022-10-04T22:55:41.788Z,73.83
2022-10-04T22:58:14.558Z,73.77
2022-10-04T23:00:43.067Z,72.99
2022-10-04T23:03:28.972Z,72.50
2022-10-04T23:05:58.702Z,71.91
2022-10-04T23:08:26.806Z,71.68
2022-10-04T23:10:56.680Z,71.76
2022-10-04T23:13:25.582Z,71.11
2022-10-04T23:15:57.243Z,70.97
2022-10-04T23:18:25.460Z,70.75
2022-10-04T23:21:03.440Z,71.11
2022-10-04T23:23:32.728Z,71.66
2022-10-04T23:26:00.869Z,71.98
2022-10-04T23:28:29.075Z,72.10
2022-10-04T23:31:06.158Z,72.20
2022-10-04T23:33:34.302Z,72.80
2022-10-04T23:36:03.853Z,72.94
2022-10-04T23:38:32.139Z,72.85
2022-10-04T23:41:00.556Z,72.12
2022-10-04T23:43:31.809Z,71.30
2022-10-04T23:46:00.267Z,70.17
2022-10-04T23:48:32.024Z,69.24
2022-10-04T23:51:01.157Z,68.54
2022-10-04T23:53:33.156Z,68.39
2022-10-04T23:56:05.677Z,67.95
2022-10-04T23:58:37.700Z,67.69
